sensor_id;sensor_type;location;lat;lon;timestamp;temperature;humidity
7163;DHT22;3623;47.098;15.446;2023-07-22T00:00:40;15.20;99.90
7163;DHT22;3623;47.098;15.446;2023-07-22T00:03:22;15.20;99.90
7163;DHT22;3623;47.098;15.446;2023-07-22T00:06:02;15.10;99.90
7163;DHT22;3623;47.098;15.446;2023-07-22T00:08:40;15.20;99.90
7163;DHT22;3623;47.098;15.446;2023-07-22T00:11:07;15.10;99.90
7163;DHT22;3623;47.098;15.446;2023-07-22T00:13:35;15.10;99.90
7163;DHT22;3623;47.098;15.446;2023-07-22T00:16:02;15.00;99.90
7163;DHT22;3623;47.098;15.446;2023-07-22T00:18:30;15.00;99.90
7163;DHT22;3623;47.098;15.446;2023-07-22T00:20:59;14.90;99.90
7163;DHT22;3623;47.098;15.446;2023-07-22T00:23:27;15.00;99.90
7163;DHT22;3623;47.098;15.446;2023-07-22T00:25:57;14.90;99.90
7163;DHT22;3623;47.098;15.446;2023-07-22T00:28:25;14.90;99.90
7163;DHT22;3623;47.098;15.446;2023-07-22T00:30:52;14.90;99.90
7163;DHT22;3623;47.098;15.446;2023-07-22T00:33:41;14.90;99.90
7163;DHT22;3623;47.098;15.446;2023-07-22T00:36:08;14.90;99.90
7163;DHT22;3623;47.098;15.446;2023-07-22T00:38:39;14.90;99.90
7163;DHT22;3623;47.098;15.446;2023-07-22T00:41:08;14.90;99.90
7163;DHT22;3623;47.098;15.446;2023-07-22T00:43:35;14.90;99.90
7163;DHT22;3623;47.098;15.446;2023-07-22T00:46:04;14.90;99.90
7163;DHT22;3623;47.098;15.446;2023-07-22T00:48:32;14.90;99.90
7163;DHT22;3623;47.098;15.446;2023-07-22T00:50:59;14.90;99.90
7163;DHT22;3623;47.098;15.446;2023-07-22T00:53:26;14.90;99.90
7163;DHT22;3623;47.098;15.446;2023-07-22T00:56:02;14.90;99.90
7163;DHT22;3623;47.098;15.446;2023-07-22T00:58:31;14.90;99.90
7163;DHT22;3623;47.098;15.446;2023-07-22T01:00:58;14.80;99.90
7163;DHT22;3623;47.098;15.446;2023-07-22T01:03:25;14.80;99.90
7163;DHT22;3623;47.098;15.446;2023-07-22T01:05:53;14.90;99.90
7163;DHT22;3623;47.098;15.446;2023-07-22T01:08:22;15.00;99.90
7163;DHT22;3623;47.098;15.446;2023-07-22T01:10:49;15.10;99.90
7163;DHT22;3623;47.098;15.446;2023-07-22T01:13:17;15.30;99.90
7163;DHT22;3623;47.098;15.446;2023-07-22T01:15:45;15.40;99.90
7163;DHT22;3623;47.098;15.446;2023-07-22T01:18:13;15.40;99.90
7163;DHT22;3623;47.098;15.446;2023-07-22T01:20:41;15.30;99.90
7163;DHT22;3623;47.098;15.446;2023-07-22T01:23:10;15.10;99.90
7163;DHT22;3623;47.098;15.446;2023-07-22T01:25:39;15.00;99.90
7163;DHT22;3623;47.098;15.446;2023-07-22T01:28:09;14.90;99.90
7163;DHT22;3623;47.098;15.446;2023-07-22T01:30:37;14.80;99.90
7163;DHT22;3623;47.098;15.446;2023-07-22T01:33:05;14.80;99.90
7163;DHT22;3623;47.098;15.446;2023-07-22T01:35:32;14.70;99.90
7163;DHT22;3623;47.098;15.446;2023-07-22T01:37:59;14.60;99.90
7163;DHT22;3623;47.098;15.446;2023-07-22T01:40:28;14.60;99.90
7163;DHT22;3623;47.098;15.446;2023-07-22T01:42:56;14.60;99.90
7163;DHT22;3623;47.098;15.446;2023-07-22T01:45:29;14.60;99.90
7163;DHT22;3623;47.098;15.446;2023-07-22T01:47:58;14.60;99.90
7163;DHT22;3623;47.098;15.446;2023-07-22T01:50:32;14.60;99.90
7163;DHT22;3623;47.098;15.446;2023-07-22T01:53:02;14.50;99.90
7163;DHT22;3623;47.098;15.446;2023-07-22T01:55:31;14.50;99.90
7163;DHT22;3623;47.098;15.446;2023-07-22T01:58:07;14.40;99.90
7163;DHT22;3623;47.098;15.446;2023-07-22T02:00:35;14.50;99.90
7163;DHT22;3623;47.098;15.446;2023-07-22T02:03:02;14.40;99.90
7163;DHT22;3623;47.098;15.446;2023-07-22T02:05:30;14.40;99.90
7163;DHT22;3623;47.098;15.446;2023-07-22T02:07:57;14.40;99.90
7163;DHT22;3623;47.098;15.446;2023-07-22T02:10:24;14.30;99.90
7163;DHT22;3623;47.098;15.446;2023-07-22T02:12:54;14.30;99.90
7163;DHT22;3623;47.098;15.446;2023-07-22T02:15:21;14.40;99.90
7163;DHT22;3623;47.098;15.446;2023-07-22T02:17:50;14.40;99.90
7163;DHT22;3623;47.098;15.446;2023-07-22T02:20:17;14.40;99.90
7163;DHT22;3623;47.098;15.446;2023-07-22T02:22:47;14.40;99.90
7163;DHT22;3623;47.098;15.446;2023-07-22T02:25:16;14.50;99.90
7163;DHT22;3623;47.098;15.446;2023-07-22T02:27:43;14.50;99.90
7163;DHT22;3623;47.098;15.446;2023-07-22T02:30:12;14.50;99.90
7163;DHT22;3623;47.098;15.446;2023-07-22T02:32:39;14.50;99.90
7163;DHT22;3623;47.098;15.446;2023-07-22T02:35:07;14.50;99.90
7163;DHT22;3623;47.098;15.446;2023-07-22T02:37:36;14.50;99.90
7163;DHT22;3623;47.098;15.446;2023-07-22T02:40:04;14.50;99.90
7163;DHT22;3623;47.098;15.446;2023-07-22T02:42:33;14.50;99.90
7163;DHT22;3623;47.098;15.446;2023-07-22T02:45:02;14.40;99.90
7163;DHT22;3623;47.098;15.446;2023-07-22T02:47:32;14.40;99.90
7163;DHT22;3623;47.098;15.446;2023-07-22T02:50:00;14.40;99.90
7163;DHT22;3623;47.098;15.446;2023-07-22T02:52:27;14.70;99.90
7163;DHT22;3623;47.098;15.446;2023-07-22T02:55:08;14.30;99.90
7163;DHT22;3623;47.098;15.446;2023-07-22T02:57:36;14.30;99.90
7163;DHT22;3623;47.098;15.446;2023-07-22T03:00:05;14.30;99.90
7163;DHT22;3623;47.098;15.446;2023-07-22T03:02:35;14.30;99.90
7163;DHT22;3623;47.098;15.446;2023-07-22T03:05:04;14.30;99.90
7163;DHT22;3623;47.098;15.446;2023-07-22T03:07:33;14.30;99.90
7163;DHT22;3623;47.098;15.446;2023-07-22T03:10:00;14.30;99.90
7163;DHT22;3623;47.098;15.446;2023-07-22T03:12:31;14.30;99.90
7163;DHT22;3623;47.098;15.446;2023-07-22T03:14:58;14.30;99.90
7163;DHT22;3623;47.098;15.446;2023-07-22T03:17:25;14.30;99.90
7163;DHT22;3623;47.098;15.446;2023-07-22T03:19:53;14.30;99.90
7163;DHT22;3623;47.098;15.446;2023-07-22T03:22:20;14.30;99.90
7163;DHT22;3623;47.098;15.446;2023-07-22T03:24:47;14.90;99.90
7163;DHT22;3623;47.098;15.446;2023-07-22T03:27:15;14.40;99.90
7163;DHT22;3623;47.098;15.446;2023-07-22T03:29:43;14.30;99.90
7163;DHT22;3623;47.098;15.446;2023-07-22T03:32:10;14.40;99.90
7163;DHT22;3623;47.098;15.446;2023-07-22T03:34:37;14.30;99.90
7163;DHT22;3623;47.098;15.446;2023-07-22T03:37:06;14.30;99.90
7163;DHT22;3623;47.098;15.446;2023-07-22T03:39:33;14.20;99.90
7163;DHT22;3623;47.098;15.446;2023-07-22T03:42:00;14.30;99.90
7163;DHT22;3623;47.098;15.446;2023-07-22T03:44:27;14.30;99.90
7163;DHT22;3623;47.098;15.446;2023-07-22T03:46:54;14.30;99.90
7163;DHT22;3623;47.098;15.446;2023-07-22T03:49:22;14.20;99.90
7163;DHT22;3623;47.098;15.446;2023-07-22T03:51:52;14.10;99.90
7163;DHT22;3623;47.098;15.446;2023-07-22T03:54:20;14.10;99.90
7163;DHT22;3623;47.098;15.446;2023-07-22T03:56:47;14.10;99.90
7163;DHT22;3623;47.098;15.446;2023-07-22T03:59:17;14.10;99.90
7163;DHT22;3623;47.098;15.446;2023-07-22T04:01:44;14.80;99.90
7163;DHT22;3623;47.098;15.446;2023-07-22T04:04:13;14.10;99.90
7163;DHT22;3623;47.098;15.446;2023-07-22T04:06:40;14.10;99.90
7163;DHT22;3623;47.098;15.446;2023-07-22T04:09:07;14.00;99.90
7163;DHT22;3623;47.098;15.446;2023-07-22T04:11:36;14.00;99.90
7163;DHT22;3623;47.098;15.446;2023-07-22T04:14:05;14.10;99.90
7163;DHT22;3623;47.098;15.446;2023-07-22T04:16:32;14.00;99.90
7163;DHT22;3623;47.098;15.446;2023-07-22T04:19:00;14.00;99.90
7163;DHT22;3623;47.098;15.446;2023-07-22T04:21:27;14.00;99.90
7163;DHT22;3623;47.098;15.446;2023-07-22T04:23:54;14.00;99.90
7163;DHT22;3623;47.098;15.446;2023-07-22T04:26:21;14.00;99.90
7163;DHT22;3623;47.098;15.446;2023-07-22T04:28:49;14.10;99.90
7163;DHT22;3623;47.098;15.446;2023-07-22T04:31:16;14.10;99.90
7163;DHT22;3623;47.098;15.446;2023-07-22T04:33:44;14.00;99.90
7163;DHT22;3623;47.098;15.446;2023-07-22T04:36:13;14.10;99.90
7163;DHT22;3623;47.098;15.446;2023-07-22T04:38:41;14.10;99.90
7163;DHT22;3623;47.098;15.446;2023-07-22T04:41:08;14.10;99.90
7163;DHT22;3623;47.098;15.446;2023-07-22T04:43:35;14.20;99.90
7163;DHT22;3623;47.098;15.446;2023-07-22T04:46:04;14.20;99.90
7163;DHT22;3623;47.098;15.446;2023-07-22T04:48:31;14.40;99.90
7163;DHT22;3623;47.098;15.446;2023-07-22T04:50:58;14.30;99.90
7163;DHT22;3623;47.098;15.446;2023-07-22T04:53:26;14.40;99.90
7163;DHT22;3623;47.098;15.446;2023-07-22T04:55:53;14.50;99.90
7163;DHT22;3623;47.098;15.446;2023-07-22T04:58:21;14.60;99.90
7163;DHT22;3623;47.098;15.446;2023-07-22T05:00:48;14.70;99.90
7163;DHT22;3623;47.098;15.446;2023-07-22T05:03:24;14.70;99.90
7163;DHT22;3623;47.098;15.446;2023-07-22T05:05:52;14.80;99.90
7163;DHT22;3623;47.098;15.446;2023-07-22T05:08:19;14.90;99.90
7163;DHT22;3623;47.098;15.446;2023-07-22T05:10:46;17.40;99.90
7163;DHT22;3623;47.098;15.446;2023-07-22T05:13:13;15.10;99.90
7163;DHT22;3623;47.098;15.446;2023-07-22T05:15:40;15.10;99.90
7163;DHT22;3623;47.098;15.446;2023-07-22T05:18:08;15.30;99.90
7163;DHT22;3623;47.098;15.446;2023-07-22T05:20:37;15.40;99.90
7163;DHT22;3623;47.098;15.446;2023-07-22T05:23:04;15.50;99.90
7163;DHT22;3623;47.098;15.446;2023-07-22T05:25:31;15.50;99.90
7163;DHT22;3623;47.098;15.446;2023-07-22T05:27:59;15.60;99.90
7163;DHT22;3623;47.098;15.446;2023-07-22T05:30:33;15.60;99.90
7163;DHT22;3623;47.098;15.446;2023-07-22T05:33:03;15.70;99.90
7163;DHT22;3623;47.098;15.446;2023-07-22T05:35:30;16.10;99.90
7163;DHT22;3623;47.098;15.446;2023-07-22T05:38:02;15.70;99.90
7163;DHT22;3623;47.098;15.446;2023-07-22T05:40:30;15.80;99.90
7163;DHT22;3623;47.098;15.446;2023-07-22T05:43:00;15.80;99.90
7163;DHT22;3623;47.098;15.446;2023-07-22T05:45:27;16.10;99.90
7163;DHT22;3623;47.098;15.446;2023-07-22T05:47:55;15.90;99.90
7163;DHT22;3623;47.098;15.446;2023-07-22T05:50:23;17.20;99.90
7163;DHT22;3623;47.098;15.446;2023-07-22T05:52:50;16.00;99.90
7163;DHT22;3623;47.098;15.446;2023-07-22T05:55:28;16.00;99.90
7163;DHT22;3623;47.098;15.446;2023-07-22T05:57:56;16.10;99.90
7163;DHT22;3623;47.098;15.446;2023-07-22T06:00:48;16.10;99.90
7163;DHT22;3623;47.098;15.446;2023-07-22T06:03:17;16.10;99.90
7163;DHT22;3623;47.098;15.446;2023-07-22T06:05:54;16.20;99.90
7163;DHT22;3623;47.098;15.446;2023-07-22T06:08:21;16.20;99.90
7163;DHT22;3623;47.098;15.446;2023-07-22T06:10:51;16.30;99.90
7163;DHT22;3623;47.098;15.446;2023-07-22T06:13:18;16.20;99.90
7163;DHT22;3623;47.098;15.446;2023-07-22T06:15:48;16.30;99.90
7163;DHT22;3623;47.098;15.446;2023-07-22T06:18:15;16.30;99.90
7163;DHT22;3623;47.098;15.446;2023-07-22T06:20:42;16.50;99.90
7163;DHT22;3623;47.098;15.446;2023-07-22T06:23:09;16.30;99.90
7163;DHT22;3623;47.098;15.446;2023-07-22T06:25:36;16.40;99.90
7163;DHT22;3623;47.098;15.446;2023-07-22T06:28:06;16.40;99.90
7163;DHT22;3623;47.098;15.446;2023-07-22T06:30:45;16.40;99.90
7163;DHT22;3623;47.098;15.446;2023-07-22T06:33:22;16.50;99.90
7163;DHT22;3623;47.098;15.446;2023-07-22T06:38:54;16.50;99.90
7163;DHT22;3623;47.098;15.446;2023-07-22T06:41:22;16.60;99.90
7163;DHT22;3623;47.098;15.446;2023-07-22T06:43:52;16.70;99.90
7163;DHT22;3623;47.098;15.446;2023-07-22T06:46:22;16.70;99.90
7163;DHT22;3623;47.098;15.446;2023-07-22T06:48:49;16.80;99.90
7163;DHT22;3623;47.098;15.446;2023-07-22T06:51:16;16.80;99.90
7163;DHT22;3623;47.098;15.446;2023-07-22T06:53:43;16.90;99.90
7163;DHT22;3623;47.098;15.446;2023-07-22T06:56:11;17.00;99.90
7163;DHT22;3623;47.098;15.446;2023-07-22T06:58:39;17.10;99.90
7163;DHT22;3623;47.098;15.446;2023-07-22T07:01:07;17.20;99.90
7163;DHT22;3623;47.098;15.446;2023-07-22T07:03:34;17.30;99.90
7163;DHT22;3623;47.098;15.446;2023-07-22T07:06:01;17.40;99.90
7163;DHT22;3623;47.098;15.446;2023-07-22T07:08:29;17.50;99.90
7163;DHT22;3623;47.098;15.446;2023-07-22T07:10:56;17.50;99.90
7163;DHT22;3623;47.098;15.446;2023-07-22T07:13:23;17.70;99.90
7163;DHT22;3623;47.098;15.446;2023-07-22T07:15:50;17.80;99.90
7163;DHT22;3623;47.098;15.446;2023-07-22T07:18:18;18.00;99.90
7163;DHT22;3623;47.098;15.446;2023-07-22T07:20:45;18.00;99.90
7163;DHT22;3623;47.098;15.446;2023-07-22T07:23:13;18.00;99.90
7163;DHT22;3623;47.098;15.446;2023-07-22T07:25:41;18.00;99.90
7163;DHT22;3623;47.098;15.446;2023-07-22T07:28:09;18.00;99.90
7163;DHT22;3623;47.098;15.446;2023-07-22T07:30:37;18.10;99.90
7163;DHT22;3623;47.098;15.446;2023-07-22T07:33:04;18.20;99.90
7163;DHT22;3623;47.098;15.446;2023-07-22T07:35:32;18.30;99.90
7163;DHT22;3623;47.098;15.446;2023-07-22T07:37:59;18.70;99.90
7163;DHT22;3623;47.098;15.446;2023-07-22T07:40:27;18.90;99.90
7163;DHT22;3623;47.098;15.446;2023-07-22T07:42:54;19.00;99.90
7163;DHT22;3623;47.098;15.446;2023-07-22T07:45:21;19.60;99.90
7163;DHT22;3623;47.098;15.446;2023-07-22T07:47:48;19.90;99.90
7163;DHT22;3623;47.098;15.446;2023-07-22T07:50:27;20.30;99.90
7163;DHT22;3623;47.098;15.446;2023-07-22T07:52:55;20.40;99.90
7163;DHT22;3623;47.098;15.446;2023-07-22T07:55:22;20.70;99.90
7163;DHT22;3623;47.098;15.446;2023-07-22T07:57:49;21.00;99.90
7163;DHT22;3623;47.098;15.446;2023-07-22T08:00:17;20.90;99.90
7163;DHT22;3623;47.098;15.446;2023-07-22T08:03:02;21.00;99.90
7163;DHT22;3623;47.098;15.446;2023-07-22T08:05:30;21.00;99.90
7163;DHT22;3623;47.098;15.446;2023-07-22T08:07:59;20.80;99.90
7163;DHT22;3623;47.098;15.446;2023-07-22T08:10:26;20.40;99.90
7163;DHT22;3623;47.098;15.446;2023-07-22T08:12:55;20.40;99.90
7163;DHT22;3623;47.098;15.446;2023-07-22T08:15:22;20.20;99.90
7163;DHT22;3623;47.098;15.446;2023-07-22T08:17:50;20.10;99.90
7163;DHT22;3623;47.098;15.446;2023-07-22T08:20:36;20.00;99.90
7163;DHT22;3623;47.098;15.446;2023-07-22T08:23:05;20.30;99.90
7163;DHT22;3623;47.098;15.446;2023-07-22T08:25:32;20.50;99.90
7163;DHT22;3623;47.098;15.446;2023-07-22T08:27:59;20.40;99.90
7163;DHT22;3623;47.098;15.446;2023-07-22T08:30:26;20.60;99.90
7163;DHT22;3623;47.098;15.446;2023-07-22T08:32:53;20.60;99.90
7163;DHT22;3623;47.098;15.446;2023-07-22T08:35:20;20.70;99.90
7163;DHT22;3623;47.098;15.446;2023-07-22T08:37:48;20.70;99.90
7163;DHT22;3623;47.098;15.446;2023-07-22T08:41:00;20.90;99.90
7163;DHT22;3623;47.098;15.446;2023-07-22T08:43:31;22.40;99.90
7163;DHT22;3623;47.098;15.446;2023-07-22T08:46:01;21.10;99.90
7163;DHT22;3623;47.098;15.446;2023-07-22T08:48:30;21.30;99.90
7163;DHT22;3623;47.098;15.446;2023-07-22T08:51:06;21.60;99.90
7163;DHT22;3623;47.098;15.446;2023-07-22T08:53:33;21.70;99.90
7163;DHT22;3623;47.098;15.446;2023-07-22T08:56:11;21.70;99.90
7163;DHT22;3623;47.098;15.446;2023-07-22T08:58:39;22.00;99.90
7163;DHT22;3623;47.098;15.446;2023-07-22T09:01:09;22.10;99.90
7163;DHT22;3623;47.098;15.446;2023-07-22T09:03:37;22.20;99.90
7163;DHT22;3623;47.098;15.446;2023-07-22T09:06:05;22.10;99.90
7163;DHT22;3623;47.098;15.446;2023-07-22T09:08:32;22.00;99.90
7163;DHT22;3623;47.098;15.446;2023-07-22T09:11:01;22.10;99.90
7163;DHT22;3623;47.098;15.446;2023-07-22T09:13:30;22.10;99.90
7163;DHT22;3623;47.098;15.446;2023-07-22T09:15:58;22.20;99.90
7163;DHT22;3623;47.098;15.446;2023-07-22T09:18:26;22.30;99.90
7163;DHT22;3623;47.098;15.446;2023-07-22T09:21:07;22.40;99.90
7163;DHT22;3623;47.098;15.446;2023-07-22T09:23:34;22.90;99.90
7163;DHT22;3623;47.098;15.446;2023-07-22T09:26:09;22.80;99.90
7163;DHT22;3623;47.098;15.446;2023-07-22T09:28:52;23.00;99.90
7163;DHT22;3623;47.098;15.446;2023-07-22T09:31:21;23.20;99.90
7163;DHT22;3623;47.098;15.446;2023-07-22T09:33:50;23.10;99.90
7163;DHT22;3623;47.098;15.446;2023-07-22T09:36:20;22.80;99.90
7163;DHT22;3623;47.098;15.446;2023-07-22T09:38:59;22.90;99.90
7163;DHT22;3623;47.098;15.446;2023-07-22T09:41:29;23.20;99.90
7163;DHT22;3623;47.098;15.446;2023-07-22T09:44:02;23.30;99.90
7163;DHT22;3623;47.098;15.446;2023-07-22T09:46:32;23.10;99.90
7163;DHT22;3623;47.098;15.446;2023-07-22T09:49:03;23.00;99.90
7163;DHT22;3623;47.098;15.446;2023-07-22T09:51:35;23.10;99.90
7163;DHT22;3623;47.098;15.446;2023-07-22T09:54:03;23.20;99.90
7163;DHT22;3623;47.098;15.446;2023-07-22T09:56:32;23.20;99.90
7163;DHT22;3623;47.098;15.446;2023-07-22T09:59:11;22.90;99.90
7163;DHT22;3623;47.098;15.446;2023-07-22T10:01:39;22.60;99.90
7163;DHT22;3623;47.098;15.446;2023-07-22T10:04:07;22.70;99.90
7163;DHT22;3623;47.098;15.446;2023-07-22T10:06:36;22.80;99.90
7163;DHT22;3623;47.098;15.446;2023-07-22T10:09:05;22.90;99.90
7163;DHT22;3623;47.098;15.446;2023-07-22T10:11:36;23.20;99.90
7163;DHT22;3623;47.098;15.446;2023-07-22T10:14:04;23.50;99.90
7163;DHT22;3623;47.098;15.446;2023-07-22T10:16:34;23.50;99.90
7163;DHT22;3623;47.098;15.446;2023-07-22T10:19:04;23.30;99.90
7163;DHT22;3623;47.098;15.446;2023-07-22T10:21:33;23.10;99.90
7163;DHT22;3623;47.098;15.446;2023-07-22T10:24:02;23.40;99.90
7163;DHT22;3623;47.098;15.446;2023-07-22T10:26:30;23.30;99.90
7163;DHT22;3623;47.098;15.446;2023-07-22T10:28:58;23.30;99.90
7163;DHT22;3623;47.098;15.446;2023-07-22T10:31:30;23.40;99.90
7163;DHT22;3623;47.098;15.446;2023-07-22T10:34:00;23.80;99.90
7163;DHT22;3623;47.098;15.446;2023-07-22T10:36:29;24.10;99.90
7163;DHT22;3623;47.098;15.446;2023-07-22T10:38:57;24.00;99.90
7163;DHT22;3623;47.098;15.446;2023-07-22T10:41:27;24.10;99.90
7163;DHT22;3623;47.098;15.446;2023-07-22T10:46:44;25.70;99.90
7163;DHT22;3623;47.098;15.446;2023-07-22T10:50:20;25.10;99.90
7163;DHT22;3623;47.098;15.446;2023-07-22T10:53:32;25.50;99.90
7163;DHT22;3623;47.098;15.446;2023-07-22T11:01:22;27.40;99.90
7163;DHT22;3623;47.098;15.446;2023-07-22T11:09:54;26.80;99.90
7163;DHT22;3623;47.098;15.446;2023-07-22T11:16:12;26.50;99.90
7163;DHT22;3623;47.098;15.446;2023-07-22T11:36:08;26.40;99.90
7163;DHT22;3623;47.098;15.446;2023-07-22T11:38:36;26.00;99.90
7163;DHT22;3623;47.098;15.446;2023-07-22T11:41:04;25.40;99.90
7163;DHT22;3623;47.098;15.446;2023-07-22T11:48:24;25.20;99.90
7163;DHT22;3623;47.098;15.446;2023-07-22T11:54:47;26.00;99.90
7163;DHT22;3623;47.098;15.446;2023-07-22T11:58:23;25.80;99.90
7163;DHT22;3623;47.098;15.446;2023-07-22T12:01:47;25.80;99.90
7163;DHT22;3623;47.098;15.446;2023-07-22T12:12:43;26.90;99.90
7163;DHT22;3623;47.098;15.446;2023-07-22T12:20:14;26.40;99.90
7163;DHT22;3623;47.098;15.446;2023-07-22T12:30:16;26.40;99.90
7163;DHT22;3623;47.098;15.446;2023-07-22T12:37:39;26.10;99.90
7163;DHT22;3623;47.098;15.446;2023-07-22T12:41:17;26.30;99.90
7163;DHT22;3623;47.098;15.446;2023-07-22T12:57:00;27.60;99.90
7163;DHT22;3623;47.098;15.446;2023-07-22T13:06:44;28.40;99.90
7163;DHT22;3623;47.098;15.446;2023-07-22T13:09:12;26.20;99.90
7163;DHT22;3623;47.098;15.446;2023-07-22T13:11:40;26.20;99.90
7163;DHT22;3623;47.098;15.446;2023-07-22T13:14:10;26.20;99.90
7163;DHT22;3623;47.098;15.446;2023-07-22T13:37:34;24.30;99.90
7163;DHT22;3623;47.098;15.446;2023-07-22T13:40:02;24.10;99.90
7163;DHT22;3623;47.098;15.446;2023-07-22T13:42:36;23.70;99.90
7163;DHT22;3623;47.098;15.446;2023-07-22T13:58:24;23.20;99.90
7163;DHT22;3623;47.098;15.446;2023-07-22T14:08:51;22.50;99.90
7163;DHT22;3623;47.098;15.446;2023-07-22T14:11:21;22.60;99.90
7163;DHT22;3623;47.098;15.446;2023-07-22T14:13:49;22.60;99.90
7163;DHT22;3623;47.098;15.446;2023-07-22T14:35:46;22.00;99.90
7163;DHT22;3623;47.098;15.446;2023-07-22T14:38:57;21.90;99.90
7163;DHT22;3623;47.098;15.446;2023-07-22T14:42:27;21.80;99.90
7163;DHT22;3623;47.098;15.446;2023-07-22T14:46:02;21.70;99.90
7163;DHT22;3623;47.098;15.446;2023-07-22T14:48:59;22.40;99.90
7163;DHT22;3623;47.098;15.446;2023-07-22T14:58:25;23.50;99.90
7163;DHT22;3623;47.098;15.446;2023-07-22T15:01:08;22.20;99.90
7163;DHT22;3623;47.098;15.446;2023-07-22T15:03:37;20.80;99.90
7163;DHT22;3623;47.098;15.446;2023-07-22T15:06:05;20.50;99.90
7163;DHT22;3623;47.098;15.446;2023-07-22T15:08:33;20.30;99.90
7163;DHT22;3623;47.098;15.446;2023-07-22T15:11:02;20.10;99.90
7163;DHT22;3623;47.098;15.446;2023-07-22T15:13:31;19.80;99.90
7163;DHT22;3623;47.098;15.446;2023-07-22T15:45:47;18.70;99.90
7163;DHT22;3623;47.098;15.446;2023-07-22T15:49:04;19.00;99.90
7163;DHT22;3623;47.098;15.446;2023-07-22T15:58:56;19.70;99.90
7163;DHT22;3623;47.098;15.446;2023-07-22T16:05:24;20.20;99.90
7163;DHT22;3623;47.098;15.446;2023-07-22T16:07:52;22.40;99.90
7163;DHT22;3623;47.098;15.446;2023-07-22T16:10:21;20.30;99.90
7163;DHT22;3623;47.098;15.446;2023-07-22T16:12:49;20.30;99.90
7163;DHT22;3623;47.098;15.446;2023-07-22T16:15:16;20.00;99.90
7163;DHT22;3623;47.098;15.446;2023-07-22T16:20:55;19.70;99.90
7163;DHT22;3623;47.098;15.446;2023-07-22T16:23:23;19.70;99.90
7163;DHT22;3623;47.098;15.446;2023-07-22T16:25:50;19.50;99.90
7163;DHT22;3623;47.098;15.446;2023-07-22T16:28:21;19.40;99.90
7163;DHT22;3623;47.098;15.446;2023-07-22T16:30:48;19.40;99.90
7163;DHT22;3623;47.098;15.446;2023-07-22T16:33:17;19.20;99.90
7163;DHT22;3623;47.098;15.446;2023-07-22T16:35:44;19.10;99.90
7163;DHT22;3623;47.098;15.446;2023-07-22T16:38:14;18.90;99.90
7163;DHT22;3623;47.098;15.446;2023-07-22T16:40:41;18.90;99.90
7163;DHT22;3623;47.098;15.446;2023-07-22T16:43:09;18.80;99.90
7163;DHT22;3623;47.098;15.446;2023-07-22T16:45:37;18.70;99.90
7163;DHT22;3623;47.098;15.446;2023-07-22T16:48:04;18.80;99.90
7163;DHT22;3623;47.098;15.446;2023-07-22T16:50:31;18.90;99.90
7163;DHT22;3623;47.098;15.446;2023-07-22T16:53:09;18.90;99.90
7163;DHT22;3623;47.098;15.446;2023-07-22T16:55:38;19.00;99.90
7163;DHT22;3623;47.098;15.446;2023-07-22T16:58:11;18.90;99.90
7163;DHT22;3623;47.098;15.446;2023-07-22T17:01:16;18.80;99.90
7163;DHT22;3623;47.098;15.446;2023-07-22T17:04:06;20.00;99.90
7163;DHT22;3623;47.098;15.446;2023-07-22T17:06:36;18.70;99.90
7163;DHT22;3623;47.098;15.446;2023-07-22T17:09:17;18.70;99.90
7163;DHT22;3623;47.098;15.446;2023-07-22T17:12:27;18.70;99.90
7163;DHT22;3623;47.098;15.446;2023-07-22T17:14:55;18.60;99.90
7163;DHT22;3623;47.098;15.446;2023-07-22T17:17:25;18.60;99.90
7163;DHT22;3623;47.098;15.446;2023-07-22T17:19:52;18.50;99.90
7163;DHT22;3623;47.098;15.446;2023-07-22T17:22:19;18.60;99.90
7163;DHT22;3623;47.098;15.446;2023-07-22T17:24:55;18.50;99.90
7163;DHT22;3623;47.098;15.446;2023-07-22T17:27:24;18.50;99.90
7163;DHT22;3623;47.098;15.446;2023-07-22T17:30:02;18.50;99.90
7163;DHT22;3623;47.098;15.446;2023-07-22T17:32:30;18.50;99.90
7163;DHT22;3623;47.098;15.446;2023-07-22T17:34:57;18.50;99.90
7163;DHT22;3623;47.098;15.446;2023-07-22T17:37:24;18.50;99.90
7163;DHT22;3623;47.098;15.446;2023-07-22T17:39:53;18.50;99.90
7163;DHT22;3623;47.098;15.446;2023-07-22T17:42:20;18.40;99.90
7163;DHT22;3623;47.098;15.446;2023-07-22T17:44:48;18.40;99.90
7163;DHT22;3623;47.098;15.446;2023-07-22T17:47:17;18.40;99.90
7163;DHT22;3623;47.098;15.446;2023-07-22T17:49:44;18.40;99.90
7163;DHT22;3623;47.098;15.446;2023-07-22T17:52:11;18.30;99.90
7163;DHT22;3623;47.098;15.446;2023-07-22T17:54:38;18.30;99.90
7163;DHT22;3623;47.098;15.446;2023-07-22T17:57:06;18.40;99.90
7163;DHT22;3623;47.098;15.446;2023-07-22T17:59:33;18.50;99.90
7163;DHT22;3623;47.098;15.446;2023-07-22T18:02:00;18.40;99.90
7163;DHT22;3623;47.098;15.446;2023-07-22T18:04:29;18.40;99.90
7163;DHT22;3623;47.098;15.446;2023-07-22T18:06:57;18.30;99.90
7163;DHT22;3623;47.098;15.446;2023-07-22T18:09:25;18.30;99.90
7163;DHT22;3623;47.098;15.446;2023-07-22T18:11:52;18.20;99.90
7163;DHT22;3623;47.098;15.446;2023-07-22T18:14:20;18.10;99.90
7163;DHT22;3623;47.098;15.446;2023-07-22T18:16:47;18.20;99.90
7163;DHT22;3623;47.098;15.446;2023-07-22T18:19:14;18.20;99.90
7163;DHT22;3623;47.098;15.446;2023-07-22T18:21:42;18.10;99.90
7163;DHT22;3623;47.098;15.446;2023-07-22T18:24:09;18.10;99.90
7163;DHT22;3623;47.098;15.446;2023-07-22T18:26:37;18.00;99.90
7163;DHT22;3623;47.098;15.446;2023-07-22T18:29:04;18.00;99.90
7163;DHT22;3623;47.098;15.446;2023-07-22T18:31:31;17.90;99.90
7163;DHT22;3623;47.098;15.446;2023-07-22T18:33:58;18.00;99.90
7163;DHT22;3623;47.098;15.446;2023-07-22T18:36:25;17.80;99.90
7163;DHT22;3623;47.098;15.446;2023-07-22T18:38:53;17.80;99.90
7163;DHT22;3623;47.098;15.446;2023-07-22T18:41:20;17.70;99.90
7163;DHT22;3623;47.098;15.446;2023-07-22T18:43:48;17.80;99.90
7163;DHT22;3623;47.098;15.446;2023-07-22T18:46:18;17.70;99.90
7163;DHT22;3623;47.098;15.446;2023-07-22T18:48:45;17.60;99.90
7163;DHT22;3623;47.098;15.446;2023-07-22T18:51:14;17.60;99.90
7163;DHT22;3623;47.098;15.446;2023-07-22T18:53:41;17.60;99.90
7163;DHT22;3623;47.098;15.446;2023-07-22T18:56:09;17.50;99.90
7163;DHT22;3623;47.098;15.446;2023-07-22T18:58:36;17.40;99.90
7163;DHT22;3623;47.098;15.446;2023-07-22T19:01:04;17.40;99.90
7163;DHT22;3623;47.098;15.446;2023-07-22T19:03:31;18.50;99.90
7163;DHT22;3623;47.098;15.446;2023-07-22T19:05:58;17.30;99.90
7163;DHT22;3623;47.098;15.446;2023-07-22T19:08:26;17.30;99.90
7163;DHT22;3623;47.098;15.446;2023-07-22T19:10:53;17.30;99.90
7163;DHT22;3623;47.098;15.446;2023-07-22T19:13:22;17.20;99.90
7163;DHT22;3623;47.098;15.446;2023-07-22T19:15:51;17.30;99.90
7163;DHT22;3623;47.098;15.446;2023-07-22T19:18:19;17.10;99.90
7163;DHT22;3623;47.098;15.446;2023-07-22T19:20:54;17.10;99.90
7163;DHT22;3623;47.098;15.446;2023-07-22T19:23:22;17.00;99.90
7163;DHT22;3623;47.098;15.446;2023-07-22T19:25:49;16.90;99.90
7163;DHT22;3623;47.098;15.446;2023-07-22T19:28:17;16.90;99.90
7163;DHT22;3623;47.098;15.446;2023-07-22T19:30:46;16.80;99.90
7163;DHT22;3623;47.098;15.446;2023-07-22T19:33:17;16.80;99.90